Time;durP1;ratioP1;P1;durP2;ratioP2;P2;SDS_P1;SDS_P2;PMS_P1;PMS_P2;Temp;Humidity;BMP_temperature;BMP_pressure;BME280_temperature;BME280_humidity;BME280_pressure;Samples;Min_cycle;Max_cycle;Signal;HPM_P1;HPM_P2
2024/03/16 00:00:09;;;;;;;16.50;10.83;;;;;;;6.80;78.18;100071.38;5036398;28;20736;-80
2024/03/16 00:02:36;;;;;;;17.47;10.03;;;;;;;6.72;78.24;100063.72;5036334;28;20197;-79
2024/03/16 00:05:04;;;;;;;19.30;10.03;;;;;;;6.78;77.79;100076.59;5037146;28;20309;-80
2024/03/16 00:07:31;;;;;;;19.57;10.77;;;;;;;6.75;77.73;100071.44;5037255;28;20314;-80
2024/03/16 00:09:58;;;;;;;17.30;10.70;;;;;;;6.81;77.87;100078.28;5037113;28;20204;-80
2024/03/16 00:12:25;;;;;;;23.13;13.07;;;;;;;6.78;77.89;100074.00;5037280;28;20199;-80
2024/03/16 00:14:52;;;;;;;19.30;11.20;;;;;;;6.76;78.09;100077.50;5036745;28;20212;-79
2024/03/16 00:17:20;;;;;;;19.50;10.47;;;;;;;6.76;78.03;100074.91;5037254;28;20224;-79
2024/03/16 00:19:47;;;;;;;17.40;11.50;;;;;;;6.76;78.19;100080.94;5037148;28;20207;-79
2024/03/16 00:22:15;;;;;;;17.73;10.47;;;;;;;6.72;78.25;100084.50;5036721;28;20263;-80
2024/03/16 00:24:42;;;;;;;16.03;10.20;;;;;;;6.69;77.97;100079.38;5049881;28;20204;-81
2024/03/16 00:27:09;;;;;;;17.70;9.77;;;;;;;6.70;78.09;100085.41;5037296;28;20218;-81
2024/03/16 00:29:36;;;;;;;21.20;11.70;;;;;;;6.69;78.29;100089.75;5037047;28;20290;-79
2024/03/16 00:32:03;;;;;;;19.37;10.90;;;;;;;6.65;78.53;100080.28;5036868;28;20200;-78
2024/03/16 00:34:32;;;;;;;20.37;11.57;;;;;;;6.62;78.67;100077.75;5036952;28;20307;-79
2024/03/16 00:37:04;;;;;;;18.47;10.67;;;;;;;6.63;78.43;100079.47;5037048;28;20320;-80
2024/03/16 00:39:31;;;;;;;20.57;11.70;;;;;;;6.65;78.60;100073.34;5037596;28;20195;-79
2024/03/16 00:41:58;;;;;;;19.37;10.27;;;;;;;6.51;78.43;100053.69;5037248;28;20199;-80
2024/03/16 00:44:25;;;;;;;18.60;10.67;;;;;;;6.65;78.73;100077.69;5037135;28;20214;-79
2024/03/16 00:46:53;;;;;;;20.23;11.30;;;;;;;6.65;78.82;100075.09;5033443;28;20286;-79
2024/03/16 00:49:20;;;;;;;21.23;11.10;;;;;;;6.59;78.23;100068.25;5036876;28;20305;-79
2024/03/16 00:51:47;;;;;;;17.50;10.73;;;;;;;6.56;78.83;100063.13;5036316;28;20743;-80
2024/03/16 00:54:14;;;;;;;20.47;11.77;;;;;;;6.65;78.51;100077.69;5036912;28;20295;-79
2024/03/16 00:56:43;;;;;;;16.73;9.77;;;;;;;6.58;78.52;100063.94;5037086;28;20208;-80
2024/03/16 00:59:10;;;;;;;19.00;10.47;;;;;;;6.55;78.53;100061.41;5018828;28;20208;-80
2024/03/16 01:01:37;;;;;;;18.70;10.57;;;;;;;6.64;78.88;100075.97;5047078;28;20204;-80
2024/03/16 01:04:05;;;;;;;18.80;10.87;;;;;;;6.55;78.62;100060.56;5045452;28;20210;-80
2024/03/16 01:06:32;;;;;;;18.70;10.80;;;;;;;6.55;78.63;100053.59;5044815;28;20634;-82
2024/03/16 01:08:59;;;;;;;18.50;10.60;;;;;;;6.57;78.52;100059.66;5030460;28;20286;-80
2024/03/16 01:11:26;;;;;;;20.47;11.23;;;;;;;6.60;79.27;100066.53;5046305;28;20210;-80
2024/03/16 01:13:53;;;;;;;22.00;11.07;;;;;;;6.64;79.05;100065.59;5023481;28;20219;-80
2024/03/16 01:16:19;;;;;;;20.20;11.57;;;;;;;6.56;79.18;100057.91;5032666;28;20216;-79
2024/03/16 01:18:46;;;;;;;22.93;13.13;;;;;;;6.65;78.90;100069.88;5027108;28;20228;-80
2024/03/16 01:21:14;;;;;;;20.33;11.63;;;;;;;6.54;79.28;100059.72;5032526;28;20203;-79
2024/03/16 01:23:41;;;;;;;20.43;11.40;;;;;;;6.66;79.24;100076.81;5033115;28;20208;-78
2024/03/16 01:26:08;;;;;;;21.03;12.20;;;;;;;6.67;78.98;100081.13;5042244;28;20204;-80
2024/03/16 01:28:35;;;;;;;17.97;11.13;;;;;;;6.66;79.48;100082.03;5028132;28;20306;-80
2024/03/16 01:31:03;;;;;;;19.23;11.17;;;;;;;6.62;79.03;100083.78;5041267;28;20654;-80
2024/03/16 01:33:30;;;;;;;20.53;11.97;;;;;;;6.64;79.73;100081.19;5044575;28;20674;-80
2024/03/16 01:35:57;;;;;;;22.97;12.23;;;;;;;6.59;79.28;100070.84;5043733;28;20201;-79
2024/03/16 01:38:24;;;;;;;23.17;13.30;;;;;;;6.59;79.52;100070.00;5025219;28;20318;-79
2024/03/16 01:40:51;;;;;;;16.93;11.13;;;;;;;6.60;79.77;100075.19;5030497;28;20204;-80
2024/03/16 01:43:18;;;;;;;18.70;11.53;;;;;;;6.67;79.83;100075.94;5031673;28;20598;-80
2024/03/16 01:45:46;;;;;;;17.67;11.10;;;;;;;6.68;79.40;100069.81;5031140;28;20265;-80
2024/03/16 01:48:14;;;;;;;16.13;10.20;;;;;;;6.63;79.66;100058.69;5028739;28;20203;-80
2024/03/16 01:50:41;;;;;;;18.60;11.93;;;;;;;6.58;79.72;100048.34;5023726;28;20286;-80
2024/03/16 01:53:09;;;;;;;18.67;11.43;;;;;;;6.65;80.01;100059.50;5032330;28;20267;-80
2024/03/16 01:55:36;;;;;;;21.63;11.53;;;;;;;6.58;79.97;100044.91;5031895;28;20203;-80
2024/03/16 01:58:04;;;;;;;18.90;11.20;;;;;;;6.70;79.65;100067.22;5043034;28;20230;-80
2024/03/16 02:00:31;;;;;;;21.10;12.57;;;;;;;6.70;79.82;100075.03;5042791;28;20211;-82
2024/03/16 02:02:58;;;;;;;16.87;10.67;;;;;;;6.58;79.75;100042.31;5046433;28;20210;-79
2024/03/16 02:05:25;;;;;;;20.00;10.93;;;;;;;6.58;79.72;100048.34;5046305;28;20204;-79
2024/03/16 02:07:52;;;;;;;17.53;10.97;;;;;;;6.70;80.08;100067.22;5021689;28;20236;-80
2024/03/16 02:10:19;;;;;;;20.10;12.40;;;;;;;6.69;79.97;100066.38;5031094;28;20565;-80
2024/03/16 02:12:47;;;;;;;21.67;12.40;;;;;;;6.72;80.25;100063.72;5027928;28;20203;-79
2024/03/16 02:15:14;;;;;;;19.30;11.53;;;;;;;6.70;79.93;100060.28;5026921;28;20670;-80
2024/03/16 02:17:41;;;;;;;20.87;11.80;;;;;;;6.71;80.00;100056.78;5026861;28;20219;-80
2024/03/16 02:20:15;;;;;;;19.70;11.27;;;;;;;6.65;80.05;100056.88;5028141;28;20570;-80
2024/03/16 02:22:42;;;;;;;17.03;11.33;;;;;;;6.73;80.14;100070.63;5027407;28;20207;-79
2024/03/16 02:25:09;;;;;;;15.77;10.40;;;;;;;6.73;80.02;100060.22;5024467;28;20199;-80
2024/03/16 02:27:37;;;;;;;18.53;10.83;;;;;;;6.67;80.33;100052.53;5023478;28;20195;-79
2024/03/16 02:30:05;;;;;;;19.93;11.97;;;;;;;6.74;80.29;100061.06;5042113;28;20210;-81
2024/03/16 02:32:32;;;;;;;18.60;11.03;;;;;;;6.75;80.06;100057.59;5040443;28;20571;-81
2024/03/16 02:34:59;;;;;;;18.70;11.90;;;;;;;6.66;80.18;100032.63;5027355;28;20228;-81
2024/03/16 02:37:26;;;;;;;17.07;10.90;;;;;;;6.75;80.76;100050.66;5028029;28;20270;-80
2024/03/16 02:39:52;;;;;;;19.30;10.80;;;;;;;6.76;80.22;100049.75;5019955;28;22326;-79
2024/03/16 02:42:20;;;;;;;20.57;11.33;;;;;;;6.76;80.28;100049.75;5026649;28;20285;-79
2024/03/16 02:44:47;;;;;;;19.73;10.80;;;;;;;6.73;80.18;100042.00;5031049;28;20404;-79
2024/03/16 02:47:14;;;;;;;17.80;11.30;;;;;;;6.63;80.47;100022.28;5041449;28;20210;-79
2024/03/16 02:49:41;;;;;;;17.07;10.40;;;;;;;6.72;80.32;100048.13;5041018;28;20199;-80
2024/03/16 02:52:10;;;;;;;18.53;10.90;;;;;;;6.77;80.07;100056.69;5031389;28;20199;-80
2024/03/16 02:54:38;;;;;;;15.33;9.40;;;;;;;6.76;80.01;100048.91;5026589;28;20207;-80
2024/03/16 02:57:05;;;;;;;20.83;11.60;;;;;;;6.73;80.27;100049.81;5044013;28;20262;-82
2024/03/16 02:59:32;;;;;;;19.07;10.83;;;;;;;6.79;79.87;100059.25;5049010;28;20207;-82
2024/03/16 03:01:59;;;;;;;17.13;10.10;;;;;;;6.71;80.02;100035.13;5033019;28;20279;-83
2024/03/16 03:04:26;;;;;;;17.03;10.93;;;;;;;6.76;80.16;100052.34;5051290;28;20216;-80
2024/03/16 03:06:54;;;;;;;16.90;10.03;;;;;;;6.81;80.11;100055.72;5033068;28;20239;-81
2024/03/16 03:09:21;;;;;;;18.93;10.93;;;;;;;6.77;80.01;100051.50;5035530;28;20212;-79
2024/03/16 03:11:48;;;;;;;20.37;11.30;;;;;;;6.72;80.59;100035.13;5033461;28;20298;-80
2024/03/16 03:14:16;;;;;;;17.83;11.23;;;;;;;6.74;80.19;100037.66;5025631;28;20218;-80
2024/03/16 03:16:44;;;;;;;18.10;10.37;;;;;;;6.72;80.41;100026.47;5043096;28;20208;-79
2024/03/16 03:19:12;;;;;;;17.57;10.10;;;;;;;6.72;80.56;100031.66;5046555;28;20220;-79
2024/03/16 03:21:39;;;;;;;17.40;10.90;;;;;;;6.83;80.16;100045.31;5044411;28;20215;-79
2024/03/16 03:24:07;;;;;;;19.53;11.13;;;;;;;6.80;80.63;100035.84;5043521;28;20571;-80
2024/03/16 03:26:34;;;;;;;19.03;11.40;;;;;;;6.76;80.22;100025.50;5044610;28;20227;-80
2024/03/16 03:29:01;;;;;;;16.03;9.60;;;;;;;6.84;80.20;100034.88;5039522;28;20565;-80
2024/03/16 03:31:28;;;;;;;19.80;10.93;;;;;;;6.84;80.54;100037.47;5045491;28;20228;-80
2024/03/16 03:33:55;;;;;;;19.30;10.97;;;;;;;6.82;80.44;100033.19;5033591;28;20249;-80
2024/03/16 03:36:22;;;;;;;21.50;11.87;;;;;;;6.87;80.61;100041.75;5027445;28;20203;-79
2024/03/16 03:38:48;;;;;;;21.60;11.50;;;;;;;6.89;80.43;100050.41;5032503;28;20234;-80
2024/03/16 03:41:18;;;;;;;18.57;11.23;;;;;;;6.88;80.37;100048.66;5045460;28;20203;-80
2024/03/16 03:43:47;;;;;;;19.57;11.27;;;;;;;6.83;80.72;100029.72;5026794;28;20216;-80
2024/03/16 03:46:28;;;;;;;17.93;10.30;;;;;;;6.77;80.37;100024.59;5046572;28;20226;-80
2024/03/16 03:49:10;;;;;;;21.00;11.67;;;;;;;6.90;80.38;100039.09;5028477;28;20567;-81
2024/03/16 03:51:37;;;;;;;20.60;12.00;;;;;;;6.89;80.35;100040.84;5033554;28;20242;-80
2024/03/16 03:54:04;;;;;;;18.33;10.97;;;;;;;6.93;80.52;100043.38;5039778;28;20250;-79
2024/03/16 03:56:31;;;;;;;19.83;11.57;;;;;;;6.87;80.22;100036.56;5027511;28;20869;-81
2024/03/16 03:58:58;;;;;;;20.00;11.97;;;;;;;6.82;80.11;100023.63;5049070;28;20233;-80
2024/03/16 04:01:26;;;;;;;17.60;11.27;;;;;;;6.92;79.84;100033.88;5025949;28;20208;-80
2024/03/16 04:03:53;;;;;;;20.00;11.80;;;;;;;6.89;79.83;100029.59;5047713;28;20662;-81
2024/03/16 04:06:20;;;;;;;23.00;11.17;;;;;;;6.87;79.86;100027.00;5032841;28;20241;-81
2024/03/16 04:08:47;;;;;;;18.50;11.33;;;;;;;6.81;79.61;100015.88;5047853;28;20582;-80
2024/03/16 04:11:14;;;;;;;17.93;10.93;;;;;;;6.91;79.84;100032.16;5034416;28;20259;-80
2024/03/16 04:13:41;;;;;;;20.43;11.63;;;;;;;6.86;79.47;100025.31;5034458;28;20215;-81
2024/03/16 04:16:10;;;;;;;20.63;11.63;;;;;;;6.88;79.67;100025.25;5034677;28;20744;-82
2024/03/16 04:18:37;;;;;;;17.80;10.73;;;;;;;6.85;79.47;100028.81;5033116;28;20223;-81
2024/03/16 04:21:06;;;;;;;19.73;10.73;;;;;;;6.78;79.62;100011.59;5045465;28;20242;-80
2024/03/16 04:23:33;;;;;;;18.17;11.13;;;;;;;6.83;79.67;100024.53;5030606;28;20689;-81
2024/03/16 04:26:00;;;;;;;19.27;11.80;;;;;;;6.87;79.18;100032.22;5048583;28;20290;-81
2024/03/16 04:28:27;;;;;;;18.90;10.80;;;;;;;6.76;79.04;100010.75;5033307;28;20570;-81
2024/03/16 04:30:54;;;;;;;17.30;10.47;;;;;;;6.76;79.46;100015.09;5032763;28;20268;-81
2024/03/16 04:33:21;;;;;;;17.60;10.77;;;;;;;6.82;78.84;100030.59;5033316;28;20211;-80
2024/03/16 04:35:48;;;;;;;15.63;9.27;;;;;;;6.81;79.37;100028.88;5034014;28;20697;-81
2024/03/16 04:38:16;;;;;;;18.63;10.10;;;;;;;6.75;79.12;100023.81;5040748;28;20226;-81
2024/03/16 04:40:43;;;;;;;16.77;9.37;;;;;;;6.74;78.71;100020.34;5033293;28;20213;-80
2024/03/16 04:43:10;;;;;;;17.43;9.77;;;;;;;6.78;78.88;100027.19;5046554;28;20636;-81
2024/03/16 04:45:37;;;;;;;18.33;10.57;;;;;;;6.77;79.01;100032.41;5045477;28;20302;-82
2024/03/16 04:48:05;;;;;;;16.97;9.83;;;;;;;6.76;79.07;100028.09;5033476;28;20218;-81
2024/03/16 04:50:32;;;;;;;15.00;9.37;;;;;;;6.63;79.05;100012.75;5045238;28;20302;-83
2024/03/16 04:52:59;;;;;;;16.37;9.63;;;;;;;6.71;78.73;100027.31;5045628;28;20215;-82
2024/03/16 04:55:26;;;;;;;15.57;9.03;;;;;;;6.65;79.10;100010.09;5047907;28;20208;-82
2024/03/16 04:57:53;;;;;;;15.73;9.37;;;;;;;6.59;78.85;100005.03;5021892;28;20653;-80
2024/03/16 05:00:21;;;;;;;16.87;10.20;;;;;;;6.69;79.07;100021.31;5027631;28;20676;-80
2024/03/16 05:02:48;;;;;;;17.10;10.90;;;;;;;6.70;78.81;100031.69;5028984;28;21908;-82
2024/03/16 05:05:15;;;;;;;17.57;10.47;;;;;;;6.71;79.01;100030.78;5046108;28;20219;-81
2024/03/16 05:07:42;;;;;;;14.40;8.83;;;;;;;6.59;78.99;100018.03;5024005;28;20710;-82
2024/03/16 05:10:10;;;;;;;15.00;9.03;;;;;;;6.70;79.04;100039.47;5042937;28;20209;-81
2024/03/16 05:12:37;;;;;;;17.13;9.50;;;;;;;6.68;79.35;100037.78;5036309;28;20232;-80
2024/03/16 05:15:04;;;;;;;15.43;8.57;;;;;;;6.64;79.33;100030.03;5049344;28;20211;-82
2024/03/16 05:17:32;;;;;;;14.70;9.30;;;;;;;6.57;79.42;100023.25;5026364;28;20200;-83
2024/03/16 05:19:59;;;;;;;14.87;8.27;;;;;;;6.66;79.41;100040.44;5045510;28;20235;-82
2024/03/16 05:22:26;;;;;;;16.10;9.77;;;;;;;6.62;79.46;100025.75;5046781;28;20290;-81
2024/03/16 05:24:53;;;;;;;16.73;9.37;;;;;;;6.62;79.52;100015.34;5041708;28;20204;-82
2024/03/16 05:27:20;;;;;;;19.13;9.77;;;;;;;6.67;79.70;100034.34;5022029;28;20246;-81
2024/03/16 05:29:47;;;;;;;15.27;8.53;;;;;;;6.54;79.78;100010.31;5040835;28;20196;-82
2024/03/16 05:32:15;;;;;;;15.17;9.80;;;;;;;6.68;80.14;100033.44;5045120;28;20559;-80
2024/03/16 05:34:42;;;;;;;16.00;9.27;;;;;;;6.64;80.23;100026.59;5043236;28;20211;-80
2024/03/16 05:37:09;;;;;;;15.27;9.20;;;;;;;6.63;80.26;100019.69;5041209;28;20677;-81
2024/03/16 05:39:36;;;;;;;18.23;10.40;;;;;;;6.70;80.23;100034.28;5038215;28;20238;-81
2024/03/16 05:42:03;;;;;;;18.87;9.93;;;;;;;6.72;80.45;100037.72;5032448;28;20310;-81
2024/03/16 05:44:31;;;;;;;17.40;10.57;;;;;;;6.63;80.36;100017.09;5043442;28;20564;-81
2024/03/16 05:46:58;;;;;;;18.00;10.70;;;;;;;6.74;80.52;100028.16;5043294;28;20210;-83
2024/03/16 05:49:25;;;;;;;17.43;10.80;;;;;;;6.67;80.62;100018.75;5027794;28;20215;-82
2024/03/16 05:51:52;;;;;;;18.53;11.43;;;;;;;6.73;80.25;100029.00;5032670;28;20222;-81
2024/03/16 05:54:19;;;;;;;17.67;10.70;;;;;;;6.65;80.26;100010.09;5028427;28;20679;-81
2024/03/16 05:56:48;;;;;;;18.93;10.73;;;;;;;6.68;80.41;100014.38;5016837;28;20246;-81
2024/03/16 05:59:15;;;;;;;18.93;11.90;;;;;;;6.67;80.80;100013.53;5023352;28;20224;-80
2024/03/16 06:01:42;;;;;;;18.30;9.77;;;;;;;6.67;80.71;100013.53;5038570;28;20674;-82
2024/03/16 06:04:10;;;;;;;21.47;11.47;;;;;;;6.75;81.23;100029.00;5042771;28;20210;-81
2024/03/16 06:06:37;;;;;;;18.60;10.47;;;;;;;6.79;80.61;100034.09;5038730;28;20281;-82
2024/03/16 06:09:04;;;;;;;19.80;10.90;;;;;;;6.83;80.57;100035.78;5043454;28;20196;-80
2024/03/16 06:11:31;;;;;;;19.07;10.30;;;;;;;6.85;80.64;100038.31;5025146;28;20235;-84
2024/03/16 06:13:58;;;;;;;21.13;11.00;;;;;;;6.85;81.09;100034.00;5043725;28;20618;-82
2024/03/16 06:16:25;;;;;;;18.80;10.90;;;;;;;6.85;80.78;100039.22;5026436;28;20212;-80
2024/03/16 06:18:52;;;;;;;20.83;10.60;;;;;;;6.81;81.08;100034.94;5024763;28;20235;-80
2024/03/16 06:21:19;;;;;;;22.07;11.43;;;;;;;6.87;81.09;100042.63;5043792;28;20211;-80
2024/03/16 06:23:48;;;;;;;23.70;11.87;;;;;;;6.87;81.01;100040.00;5027664;28;20199;-80
2024/03/16 06:26:17;;;;;;;20.90;11.93;;;;;;;6.86;80.88;100033.09;5021879;28;20710;-80
2024/03/16 06:28:47;;;;;;;18.43;11.73;;;;;;;6.89;81.08;100045.19;5027827;28;20215;-81
2024/03/16 06:31:14;;;;;;;18.97;11.10;;;;;;;6.90;81.22;100036.50;5046262;28;20204;-81
2024/03/16 06:33:45;;;;;;;21.37;11.57;;;;;;;6.93;81.30;100035.59;5035071;28;20217;-81
2024/03/16 06:36:12;;;;;;;23.80;12.87;;;;;;;6.88;81.02;100027.88;5042739;28;20213;-80
2024/03/16 06:38:42;;;;;;;20.27;11.90;;;;;;;6.94;81.48;100039.88;5024652;28;20705;-80
2024/03/16 06:41:09;;;;;;;19.90;11.03;;;;;;;6.97;81.23;100042.44;5031554;28;20288;-80
2024/03/16 06:43:36;;;;;;;18.83;11.07;;;;;;;6.93;81.48;100030.38;5029718;28;20295;-81
2024/03/16 06:46:05;;;;;;;16.00;9.67;;;;;;;7.01;80.96;100047.56;5044987;28;20301;-81
2024/03/16 06:48:32;;;;;;;18.43;11.00;;;;;;;6.98;80.94;100045.00;5048185;28;20212;-82
2024/03/16 06:50:59;;;;;;;18.50;10.37;;;;;;;7.02;81.15;100051.00;5045097;28;20232;-81
2024/03/16 06:53:27;;;;;;;23.43;12.40;;;;;;;6.95;81.56;100033.81;5046807;28;20247;-81
2024/03/16 06:55:55;;;;;;;18.70;10.93;;;;;;;6.97;81.18;100040.72;5029362;28;20235;-80
2024/03/16 06:58:22;;;;;;;21.13;11.03;;;;;;;7.01;81.67;100041.50;5035731;28;20208;-80
2024/03/16 07:00:49;;;;;;;20.63;12.13;;;;;;;7.09;81.68;100052.59;5035072;28;20203;-80
2024/03/16 07:03:16;;;;;;;20.83;11.83;;;;;;;7.08;81.39;100048.28;5032917;28;20207;-81
2024/03/16 07:05:44;;;;;;;20.87;11.57;;;;;;;7.14;81.57;100058.59;5030320;28;20230;-82
2024/03/16 07:08:15;;;;;;;20.63;11.17;;;;;;;7.05;81.20;100045.75;5030535;28;20302;-80
2024/03/16 07:10:43;;;;;;;24.13;13.07;;;;;;;7.16;81.45;100055.94;5027936;28;20672;-79
2024/03/16 07:13:10;;;;;;;21.90;12.87;;;;;;;7.15;81.80;100051.63;5043543;28;20242;-80
2024/03/16 07:15:37;;;;;;;20.00;11.63;;;;;;;7.21;81.50;100057.56;5033281;28;20207;-80
2024/03/16 07:18:04;;;;;;;20.43;11.53;;;;;;;7.13;81.65;100046.44;5044426;28;20542;-80
2024/03/16 07:20:31;;;;;;;18.83;11.30;;;;;;;7.18;81.35;100046.38;5048833;28;20307;-81
2024/03/16 07:22:59;;;;;;;22.37;12.57;;;;;;;7.27;81.50;100060.03;5048922;28;20199;-80
2024/03/16 07:25:26;;;;;;;20.13;12.00;;;;;;;7.22;81.76;100053.19;5032542;28;20208;-81
2024/03/16 07:27:53;;;;;;;21.63;12.50;;;;;;;7.30;81.91;100062.56;5026535;28;20240;-80
2024/03/16 07:30:20;;;;;;;21.67;12.10;;;;;;;7.27;81.87;100052.22;5026367;28;20246;-82
2024/03/16 07:32:49;;;;;;;20.30;12.53;;;;;;;7.28;81.52;100053.06;5029722;28;20295;-81
2024/03/16 07:35:16;;;;;;;20.50;11.53;;;;;;;7.35;81.36;100057.28;5035327;28;20205;-80
2024/03/16 07:37:43;;;;;;;22.77;11.87;;;;;;;7.32;81.87;100065.16;5032347;28;20633;-81
2024/03/16 07:40:13;;;;;;;21.63;11.90;;;;;;;7.41;81.90;100070.19;5043342;28;20282;-81
2024/03/16 07:42:42;;;;;;;20.83;11.73;;;;;;;7.39;81.92;100063.31;5030034;28;20208;-81
2024/03/16 07:45:09;;;;;;;22.30;12.23;;;;;;;7.38;81.59;100065.03;5042421;28;20608;-80
2024/03/16 07:47:36;;;;;;;20.27;11.97;;;;;;;7.38;81.58;100064.16;5046238;28;20208;-81
2024/03/16 07:50:05;;;;;;;19.97;11.70;;;;;;;7.51;81.45;100082.13;5045641;28;20206;-80
2024/03/16 07:52:33;;;;;;;20.63;11.23;;;;;;;7.50;81.25;100072.59;5046190;28;20748;-80
2024/03/16 07:55:01;;;;;;;24.00;11.67;;;;;;;7.53;81.49;100076.88;5046299;28;20214;-81
2024/03/16 07:57:28;;;;;;;21.60;12.67;;;;;;;7.59;81.49;100076.75;5029153;28;20213;-80
2024/03/16 07:59:55;;;;;;;22.07;12.63;;;;;;;7.52;81.57;100067.38;5027845;28;20224;-81
2024/03/16 08:02:22;;;;;;;22.90;12.40;;;;;;;7.64;81.38;100082.72;5030659;28;20660;-81
2024/03/16 08:04:49;;;;;;;20.57;11.87;;;;;;;7.62;81.89;100079.28;5040839;28;20599;-80
2024/03/16 08:07:17;;;;;;;21.77;13.30;;;;;;;7.58;82.03;100068.97;5034231;28;20730;-81
2024/03/16 08:09:44;;;;;;;20.40;11.33;;;;;;;7.62;81.64;100061.06;5028483;28;20213;-80
2024/03/16 08:12:12;;;;;;;20.80;11.50;;;;;;;7.74;81.62;100081.63;5038461;28;20688;-80
2024/03/16 08:14:38;;;;;;;19.47;11.17;;;;;;;7.67;81.87;100072.22;5027018;28;20672;-80
2024/03/16 08:17:05;;;;;;;20.97;11.10;;;;;;;7.78;81.93;100085.03;5046565;28;20213;-80
2024/03/16 08:19:32;;;;;;;19.73;10.90;;;;;;;7.83;81.93;100087.53;5025188;28;20217;-82
2024/03/16 08:21:59;;;;;;;19.70;11.03;;;;;;;7.76;81.83;100073.78;5043731;28;20207;-82
2024/03/16 08:24:27;;;;;;;21.07;11.20;;;;;;;7.88;81.75;100077.84;5027428;28;20590;-80
2024/03/16 08:26:54;;;;;;;20.93;11.33;;;;;;;7.86;81.61;100072.69;5028633;28;21391;-81
2024/03/16 08:29:21;;;;;;;17.73;10.93;;;;;;;7.90;81.95;100073.47;5031261;28;20210;-80
2024/03/16 08:31:50;;;;;;;19.33;11.50;;;;;;;7.91;81.99;100070.84;5025626;28;20221;-80
2024/03/16 08:34:17;;;;;;;17.90;10.23;;;;;;;7.96;82.07;100057.69;5029947;28;20216;-81
2024/03/16 08:36:44;;;;;;;17.83;10.63;;;;;;;8.03;82.38;100068.84;5036949;28;20204;-81
2024/03/16 08:39:11;;;;;;;16.13;10.40;;;;;;;8.06;82.25;100064.41;5026043;28;20661;-81
2024/03/16 08:41:38;;;;;;;19.13;10.20;;;;;;;8.11;82.43;100073.00;5030392;28;20219;-81
2024/03/16 08:44:07;;;;;;;19.80;11.53;;;;;;;8.13;82.56;100071.19;5030202;28;20205;-82
2024/03/16 08:46:34;;;;;;;19.87;10.93;;;;;;;8.16;82.35;100057.22;5026967;28;20541;-81
2024/03/16 08:49:01;;;;;;;16.63;9.87;;;;;;;8.17;83.08;100052.00;5023923;28;20218;-83
2024/03/16 08:51:28;;;;;;;19.27;10.63;;;;;;;8.29;82.75;100057.78;5031377;28;20206;-81
2024/03/16 08:53:55;;;;;;;18.03;10.70;;;;;;;8.30;82.41;100051.69;5022912;28;20287;-81
2024/03/16 08:56:24;;;;;;;17.03;9.60;;;;;;;8.41;82.70;100062.69;5028491;28;20210;-82
2024/03/16 08:58:51;;;;;;;20.17;10.77;;;;;;;8.47;82.63;100062.53;5029463;28;20210;-79
2024/03/16 09:01:18;;;;;;;15.83;9.33;;;;;;;8.47;82.54;100052.09;5025395;28;20238;-80
2024/03/16 09:03:45;;;;;;;17.83;10.43;;;;;;;8.58;82.82;100062.25;5027749;28;20301;-81
2024/03/16 09:06:13;;;;;;;15.90;9.07;;;;;;;8.56;82.45;100051.91;5048365;28;20595;-81
2024/03/16 09:08:40;;;;;;;14.63;9.23;;;;;;;8.59;82.76;100051.81;5044800;28;20636;-82
2024/03/16 09:11:09;;;;;;;14.20;9.30;;;;;;;8.76;82.22;100068.75;5029975;28;20274;-82
2024/03/16 09:13:36;;;;;;;13.90;9.10;;;;;;;8.78;82.26;100061.75;5042846;28;20282;-82
2024/03/16 09:16:05;;;;;;;13.63;7.87;;;;;;;8.77;82.01;100052.22;5028483;28;20626;-81
2024/03/16 09:18:33;;;;;;;14.57;8.67;;;;;;;8.90;82.44;100064.91;5025492;28;20208;-82
2024/03/16 09:21:00;;;;;;;16.07;9.03;;;;;;;8.93;82.07;100058.72;5030688;28;20237;-80
2024/03/16 09:23:27;;;;;;;11.07;8.23;;;;;;;8.90;82.07;100043.16;5028402;28;20217;-79
2024/03/16 09:25:55;;;;;;;14.70;8.53;;;;;;;8.99;82.04;100055.09;5032339;28;20298;-79
2024/03/16 09:28:22;;;;;;;15.37;8.67;;;;;;;9.09;82.24;100057.41;5029445;28;20216;-79
2024/03/16 09:30:49;;;;;;;13.37;8.97;;;;;;;9.17;82.03;100056.34;5022984;28;20206;-79
2024/03/16 09:33:16;;;;;;;14.10;9.03;;;;;;;9.22;81.47;100057.06;5042420;28;20210;-79
2024/03/16 09:35:43;;;;;;;12.23;8.37;;;;;;;9.27;81.38;100063.03;5028294;28;20213;-80
2024/03/16 09:38:10;;;;;;;13.37;8.23;;;;;;;9.27;81.28;100052.59;5028522;28;20618;-79
2024/03/16 09:40:39;;;;;;;10.00;5.97;;;;;;;9.28;80.65;100049.09;5029798;28;20558;-80
2024/03/16 09:43:09;;;;;;;13.07;7.93;;;;;;;9.34;80.71;100060.22;5026680;28;20661;-79
2024/03/16 09:45:36;;;;;;;15.07;9.40;;;;;;;9.28;80.36;100054.31;5026713;28;20224;-80
2024/03/16 09:48:04;;;;;;;13.53;8.10;;;;;;;9.31;79.94;100056.84;5028242;28;20305;-79
2024/03/16 09:50:32;;;;;;;15.20;9.90;;;;;;;9.31;79.25;100067.28;5029217;28;20213;-81
2024/03/16 09:52:59;;;;;;;17.13;11.80;;;;;;;9.37;78.21;100064.50;5031129;28;20930;-80
2024/03/16 09:55:27;;;;;;;15.93;10.33;;;;;;;9.25;78.38;100055.22;5028464;28;20293;-79
2024/03/16 09:57:54;;;;;;;13.77;8.93;;;;;;;9.23;78.24;100061.38;5040797;28;20227;-80
2024/03/16 10:00:22;;;;;;;16.77;9.50;;;;;;;9.12;78.36;100054.69;5031429;28;20237;-80
2024/03/16 10:02:50;;;;;;;14.80;9.40;;;;;;;9.06;78.59;100054.88;5026558;28;20211;-80
2024/03/16 10:05:18;;;;;;;15.03;10.10;;;;;;;9.00;78.02;100049.84;5040646;28;20267;-83
2024/03/16 10:07:45;;;;;;;16.33;9.77;;;;;;;9.00;78.19;100057.66;5029550;28;20239;-80
2024/03/16 10:10:17;;;;;;;14.03;8.67;;;;;;;8.93;77.91;100060.47;5040956;28;20212;-80
2024/03/16 10:12:44;;;;;;;12.97;8.73;;;;;;;8.89;77.95;100063.16;5026424;28;20212;-79
2024/03/16 10:15:15;;;;;;;14.20;9.90;;;;;;;8.82;77.78;100052.97;5042097;28;20212;-80
2024/03/16 10:17:42;;;;;;;14.30;9.87;;;;;;;8.85;77.33;100060.69;5041636;28;20665;-80
2024/03/16 10:20:15;;;;;;;10.43;6.83;;;;;;;8.79;76.67;100061.72;5039503;28;20593;-79
2024/03/16 10:22:44;;;;;;;16.23;10.60;;;;;;;8.73;76.83;100068.84;5038866;28;20553;-79
2024/03/16 10:25:11;;;;;;;13.10;7.50;;;;;;;8.76;77.10;100076.56;5030145;28;20656;-80
2024/03/16 10:27:39;;;;;;;15.00;8.83;;;;;;;8.68;77.08;100075.03;5043301;28;20213;-79
2024/03/16 10:30:10;;;;;;;14.97;10.63;;;;;;;8.65;76.92;100077.72;5029113;28;20556;-81
2024/03/16 10:32:38;;;;;;;15.33;9.07;;;;;;;8.72;76.57;100093.22;5042582;28;20202;-79
2024/03/16 10:35:07;;;;;;;16.37;10.57;;;;;;;8.71;76.80;100086.28;5028558;28;20286;-83
2024/03/16 10:37:35;;;;;;;15.07;10.47;;;;;;;8.69;76.69;100076.72;5027460;28;20207;-79
2024/03/16 10:40:13;;;;;;;15.37;10.37;;;;;;;8.65;76.30;100075.13;5026767;28;20233;-80
2024/03/16 10:42:45;;;;;;;18.07;10.17;;;;;;;8.65;76.28;100064.69;5025381;28;20206;-79
2024/03/16 10:45:16;;;;;;;12.67;9.53;;;;;;;8.65;76.18;100075.13;5030660;28;20220;-82
2024/03/16 10:47:44;;;;;;;14.50;9.30;;;;;;;8.63;76.32;100076.06;5033292;28;20207;-80
2024/03/16 10:50:11;;;;;;;13.77;9.50;;;;;;;8.59;76.10;100072.66;5027474;28;20222;-79
2024/03/16 10:52:43;;;;;;;15.20;9.93;;;;;;;8.61;76.52;100073.47;5037382;28;20556;-80
2024/03/16 10:55:11;;;;;;;14.63;9.40;;;;;;;8.59;76.33;100059.63;5029406;28;20209;-79
2024/03/16 10:57:38;;;;;;;15.23;9.97;;;;;;;8.66;76.16;100070.75;5036267;28;20551;-81
2024/03/16 11:00:13;;;;;;;14.33;10.10;;;;;;;8.69;75.98;100068.06;5026245;28;20238;-79
2024/03/16 11:02:59;;;;;;;13.60;9.77;;;;;;;8.73;76.27;100071.44;5024246;28;20217;-80
2024/03/16 11:05:36;;;;;;;13.67;8.63;;;;;;;8.71;76.02;100061.06;5028988;28;20551;-80
2024/03/16 11:08:23;;;;;;;14.23;8.53;;;;;;;8.72;75.81;100073.19;5025213;28;20211;-81
2024/03/16 11:10:50;;;;;;;14.03;9.90;;;;;;;8.68;75.58;100069.81;5025436;28;20203;-78
2024/03/16 11:13:17;;;;;;;10.00;6.50;;;;;;;8.64;75.29;100076.00;5024108;28;20209;-79
2024/03/16 11:15:45;;;;;;;17.70;9.87;;;;;;;8.61;75.36;100080.44;5035179;28;20201;-78
2024/03/16 11:18:43;;;;;;;14.57;10.23;;;;;;;8.59;75.55;100080.50;5028156;28;20201;-78
2024/03/16 11:21:17;;;;;;;17.10;11.03;;;;;;;8.58;75.66;100086.59;5047883;28;20652;-79